sensor_id;sensor_type;location;lat;lon;timestamp;P1;durP1;ratioP1;P2;durP2;ratioP2
27566;SDS011;15006;48.584;9.186;2024-03-25T00:00:13;4.45;;;2.28;;
27566;SDS011;15006;48.584;9.186;2024-03-25T00:02:41;2.80;;;2.17;;
27566;SDS011;15006;48.584;9.186;2024-03-25T00:05:08;4.53;;;2.00;;
27566;SDS011;15006;48.584;9.186;2024-03-25T00:07:35;4.55;;;2.15;;
27566;SDS011;15006;48.584;9.186;2024-03-25T00:10:02;3.63;;;2.30;;
27566;SDS011;15006;48.584;9.186;2024-03-25T00:12:29;3.03;;;2.50;;
27566;SDS011;15006;48.584;9.186;2024-03-25T00:14:54;5.05;;;2.10;;
27566;SDS011;15006;48.584;9.186;2024-03-25T00:17:20;2.92;;;2.25;;
27566;SDS011;15006;48.584;9.186;2024-03-25T00:19:46;4.40;;;2.38;;
27566;SDS011;15006;48.584;9.186;2024-03-25T00:22:16;2.63;;;2.20;;
27566;SDS011;15006;48.584;9.186;2024-03-25T00:24:46;4.05;;;2.50;;
27566;SDS011;15006;48.584;9.186;2024-03-25T00:27:13;2.88;;;2.47;;
27566;SDS011;15006;48.584;9.186;2024-03-25T00:29:40;2.55;;;1.98;;
27566;SDS011;15006;48.584;9.186;2024-03-25T00:32:06;6.53;;;2.60;;
27566;SDS011;15006;48.584;9.186;2024-03-25T00:34:32;3.08;;;2.70;;
27566;SDS011;15006;48.584;9.186;2024-03-25T00:36:59;6.03;;;2.85;;
27566;SDS011;15006;48.584;9.186;2024-03-25T00:39:26;4.35;;;2.50;;
27566;SDS011;15006;48.584;9.186;2024-03-25T00:41:53;4.72;;;2.33;;
27566;SDS011;15006;48.584;9.186;2024-03-25T00:44:19;3.28;;;2.70;;
27566;SDS011;15006;48.584;9.186;2024-03-25T00:46:45;2.65;;;2.45;;
27566;SDS011;15006;48.584;9.186;2024-03-25T00:49:11;2.60;;;2.40;;
27566;SDS011;15006;48.584;9.186;2024-03-25T00:51:37;3.05;;;2.58;;
27566;SDS011;15006;48.584;9.186;2024-03-25T00:54:04;3.03;;;2.20;;
27566;SDS011;15006;48.584;9.186;2024-03-25T00:56:33;2.75;;;2.55;;
27566;SDS011;15006;48.584;9.186;2024-03-25T00:58:59;4.07;;;2.83;;
27566;SDS011;15006;48.584;9.186;2024-03-25T01:01:30;3.17;;;2.75;;
27566;SDS011;15006;48.584;9.186;2024-03-25T01:03:58;5.60;;;2.88;;
27566;SDS011;15006;48.584;9.186;2024-03-25T01:06:24;5.90;;;2.85;;
27566;SDS011;15006;48.584;9.186;2024-03-25T01:08:50;4.22;;;2.75;;
27566;SDS011;15006;48.584;9.186;2024-03-25T01:11:16;7.53;;;2.60;;
27566;SDS011;15006;48.584;9.186;2024-03-25T01:13:43;4.40;;;2.78;;
27566;SDS011;15006;48.584;9.186;2024-03-25T01:16:09;4.03;;;2.83;;
27566;SDS011;15006;48.584;9.186;2024-03-25T01:18:35;5.38;;;2.80;;
27566;SDS011;15006;48.584;9.186;2024-03-25T01:21:01;5.68;;;2.85;;
27566;SDS011;15006;48.584;9.186;2024-03-25T01:23:28;4.50;;;2.90;;
27566;SDS011;15006;48.584;9.186;2024-03-25T01:25:54;4.22;;;2.65;;
27566;SDS011;15006;48.584;9.186;2024-03-25T01:28:20;2.67;;;2.47;;
27566;SDS011;15006;48.584;9.186;2024-03-25T01:30:46;5.03;;;2.95;;
27566;SDS011;15006;48.584;9.186;2024-03-25T01:33:12;4.38;;;3.20;;
27566;SDS011;15006;48.584;9.186;2024-03-25T01:35:37;6.28;;;3.10;;
27566;SDS011;15006;48.584;9.186;2024-03-25T01:38:03;4.40;;;3.05;;
27566;SDS011;15006;48.584;9.186;2024-03-25T01:40:29;2.75;;;2.50;;
27566;SDS011;15006;48.584;9.186;2024-03-25T01:42:59;3.30;;;2.95;;
27566;SDS011;15006;48.584;9.186;2024-03-25T01:45:28;6.53;;;2.92;;
27566;SDS011;15006;48.584;9.186;2024-03-25T01:47:56;4.10;;;2.75;;
27566;SDS011;15006;48.584;9.186;2024-03-25T01:50:27;3.60;;;2.63;;
27566;SDS011;15006;48.584;9.186;2024-03-25T01:52:55;5.28;;;2.80;;
27566;SDS011;15006;48.584;9.186;2024-03-25T01:55:22;3.03;;;2.72;;
27566;SDS011;15006;48.584;9.186;2024-03-25T01:57:52;5.88;;;3.33;;
27566;SDS011;15006;48.584;9.186;2024-03-25T02:00:19;5.40;;;2.78;;
27566;SDS011;15006;48.584;9.186;2024-03-25T02:02:46;4.93;;;3.22;;
27566;SDS011;15006;48.584;9.186;2024-03-25T02:05:15;3.20;;;2.90;;
27566;SDS011;15006;48.584;9.186;2024-03-25T02:07:43;4.40;;;2.88;;
27566;SDS011;15006;48.584;9.186;2024-03-25T02:10:10;5.57;;;3.25;;
27566;SDS011;15006;48.584;9.186;2024-03-25T02:12:42;5.10;;;3.22;;
27566;SDS011;15006;48.584;9.186;2024-03-25T02:15:09;8.10;;;2.90;;
27566;SDS011;15006;48.584;9.186;2024-03-25T02:17:37;4.78;;;3.28;;
27566;SDS011;15006;48.584;9.186;2024-03-25T02:20:03;5.38;;;2.78;;
27566;SDS011;15006;48.584;9.186;2024-03-25T02:22:32;3.45;;;2.92;;
27566;SDS011;15006;48.584;9.186;2024-03-25T02:24:59;4.93;;;2.70;;
27566;SDS011;15006;48.584;9.186;2024-03-25T02:27:26;2.85;;;2.65;;
27566;SDS011;15006;48.584;9.186;2024-03-25T02:30:07;4.22;;;2.60;;
27566;SDS011;15006;48.584;9.186;2024-03-25T02:32:38;3.20;;;2.92;;
27566;SDS011;15006;48.584;9.186;2024-03-25T02:35:07;3.72;;;2.88;;
27566;SDS011;15006;48.584;9.186;2024-03-25T02:37:37;3.33;;;3.00;;
27566;SDS011;15006;48.584;9.186;2024-03-25T02:40:04;5.30;;;2.78;;
27566;SDS011;15006;48.584;9.186;2024-03-25T02:42:32;3.10;;;2.90;;
27566;SDS011;15006;48.584;9.186;2024-03-25T02:44:59;3.92;;;3.13;;
27566;SDS011;15006;48.584;9.186;2024-03-25T02:47:25;4.78;;;2.78;;
27566;SDS011;15006;48.584;9.186;2024-03-25T02:49:51;7.32;;;2.80;;
27566;SDS011;15006;48.584;9.186;2024-03-25T02:52:20;3.28;;;2.53;;
27566;SDS011;15006;48.584;9.186;2024-03-25T02:54:47;3.85;;;2.97;;
27566;SDS011;15006;48.584;9.186;2024-03-25T02:57:13;4.57;;;2.90;;
27566;SDS011;15006;48.584;9.186;2024-03-25T02:59:39;6.45;;;3.30;;
27566;SDS011;15006;48.584;9.186;2024-03-25T03:02:05;3.72;;;3.00;;
27566;SDS011;15006;48.584;9.186;2024-03-25T03:04:31;3.15;;;2.83;;
27566;SDS011;15006;48.584;9.186;2024-03-25T03:06:57;3.72;;;2.60;;
27566;SDS011;15006;48.584;9.186;2024-03-25T03:09:23;3.45;;;2.80;;
27566;SDS011;15006;48.584;9.186;2024-03-25T03:11:49;5.22;;;3.00;;
27566;SDS011;15006;48.584;9.186;2024-03-25T03:14:15;3.03;;;2.83;;
27566;SDS011;15006;48.584;9.186;2024-03-25T03:16:41;3.05;;;2.72;;
27566;SDS011;15006;48.584;9.186;2024-03-25T03:19:07;6.00;;;2.75;;
27566;SDS011;15006;48.584;9.186;2024-03-25T03:21:32;4.00;;;3.03;;
27566;SDS011;15006;48.584;9.186;2024-03-25T03:23:58;3.22;;;2.70;;
27566;SDS011;15006;48.584;9.186;2024-03-25T03:26:24;4.47;;;2.97;;
27566;SDS011;15006;48.584;9.186;2024-03-25T03:28:54;6.90;;;2.75;;
27566;SDS011;15006;48.584;9.186;2024-03-25T03:31:21;3.00;;;2.67;;
27566;SDS011;15006;48.584;9.186;2024-03-25T03:33:47;6.28;;;3.45;;
27566;SDS011;15006;48.584;9.186;2024-03-25T03:36:19;3.20;;;2.97;;
27566;SDS011;15006;48.584;9.186;2024-03-25T03:38:49;3.67;;;3.30;;
27566;SDS011;15006;48.584;9.186;2024-03-25T03:41:16;4.85;;;2.92;;
27566;SDS011;15006;48.584;9.186;2024-03-25T03:43:42;3.55;;;3.03;;
27566;SDS011;15006;48.584;9.186;2024-03-25T03:46:08;2.97;;;2.70;;
27566;SDS011;15006;48.584;9.186;2024-03-25T03:48:34;3.08;;;2.85;;
27566;SDS011;15006;48.584;9.186;2024-03-25T03:51:01;3.10;;;2.90;;
27566;SDS011;15006;48.584;9.186;2024-03-25T03:53:27;5.20;;;3.22;;
27566;SDS011;15006;48.584;9.186;2024-03-25T03:55:56;5.78;;;3.33;;
27566;SDS011;15006;48.584;9.186;2024-03-25T03:58:23;4.70;;;3.28;;
27566;SDS011;15006;48.584;9.186;2024-03-25T04:00:50;5.68;;;3.33;;
27566;SDS011;15006;48.584;9.186;2024-03-25T04:03:17;3.45;;;2.72;;
27566;SDS011;15006;48.584;9.186;2024-03-25T04:05:43;3.00;;;2.80;;
27566;SDS011;15006;48.584;9.186;2024-03-25T04:08:09;6.20;;;3.05;;
27566;SDS011;15006;48.584;9.186;2024-03-25T04:10:35;4.70;;;3.47;;
27566;SDS011;15006;48.584;9.186;2024-03-25T04:13:01;5.45;;;3.10;;
27566;SDS011;15006;48.584;9.186;2024-03-25T04:15:35;4.40;;;3.20;;
27566;SDS011;15006;48.584;9.186;2024-03-25T04:18:02;3.65;;;2.78;;
27566;SDS011;15006;48.584;9.186;2024-03-25T04:20:29;6.55;;;3.30;;
27566;SDS011;15006;48.584;9.186;2024-03-25T04:23:01;3.13;;;2.88;;
27566;SDS011;15006;48.584;9.186;2024-03-25T04:25:27;2.95;;;2.75;;
27566;SDS011;15006;48.584;9.186;2024-03-25T04:27:53;4.63;;;2.80;;
27566;SDS011;15006;48.584;9.186;2024-03-25T04:30:19;3.83;;;2.83;;
27566;SDS011;15006;48.584;9.186;2024-03-25T04:32:45;3.20;;;3.00;;
27566;SDS011;15006;48.584;9.186;2024-03-25T04:35:11;3.75;;;3.10;;
27566;SDS011;15006;48.584;9.186;2024-03-25T04:37:37;4.97;;;3.17;;
27566;SDS011;15006;48.584;9.186;2024-03-25T04:40:03;3.50;;;3.20;;
27566;SDS011;15006;48.584;9.186;2024-03-25T04:42:30;4.90;;;2.97;;
27566;SDS011;15006;48.584;9.186;2024-03-25T04:44:56;3.90;;;3.33;;
27566;SDS011;15006;48.584;9.186;2024-03-25T04:47:23;3.97;;;3.22;;
27566;SDS011;15006;48.584;9.186;2024-03-25T04:49:49;4.95;;;3.05;;
27566;SDS011;15006;48.584;9.186;2024-03-25T04:52:15;3.72;;;3.17;;
27566;SDS011;15006;48.584;9.186;2024-03-25T04:54:48;4.95;;;3.38;;
27566;SDS011;15006;48.584;9.186;2024-03-25T04:57:14;7.20;;;3.55;;
27566;SDS011;15006;48.584;9.186;2024-03-25T04:59:40;4.30;;;3.90;;
27566;SDS011;15006;48.584;9.186;2024-03-25T05:02:06;2.75;;;2.65;;
27566;SDS011;15006;48.584;9.186;2024-03-25T05:04:32;6.22;;;3.00;;
27566;SDS011;15006;48.584;9.186;2024-03-25T05:06:58;3.05;;;2.85;;
27566;SDS011;15006;48.584;9.186;2024-03-25T05:09:24;4.13;;;3.72;;
27566;SDS011;15006;48.584;9.186;2024-03-25T05:11:50;7.78;;;3.63;;
27566;SDS011;15006;48.584;9.186;2024-03-25T05:14:16;4.65;;;3.75;;
27566;SDS011;15006;48.584;9.186;2024-03-25T05:16:42;5.70;;;3.15;;
27566;SDS011;15006;48.584;9.186;2024-03-25T05:19:08;6.22;;;3.42;;
27566;SDS011;15006;48.584;9.186;2024-03-25T05:21:34;4.55;;;3.28;;
27566;SDS011;15006;48.584;9.186;2024-03-25T05:24:00;3.78;;;3.38;;
27566;SDS011;15006;48.584;9.186;2024-03-25T05:26:26;4.03;;;3.65;;
27566;SDS011;15006;48.584;9.186;2024-03-25T05:28:53;5.65;;;3.40;;
27566;SDS011;15006;48.584;9.186;2024-03-25T05:31:19;8.88;;;3.40;;
27566;SDS011;15006;48.584;9.186;2024-03-25T05:33:45;5.10;;;3.70;;
27566;SDS011;15006;48.584;9.186;2024-03-25T05:36:11;4.70;;;3.30;;
27566;SDS011;15006;48.584;9.186;2024-03-25T05:38:37;4.32;;;3.30;;
27566;SDS011;15006;48.584;9.186;2024-03-25T05:41:03;5.85;;;3.40;;
27566;SDS011;15006;48.584;9.186;2024-03-25T05:43:29;4.88;;;3.42;;
27566;SDS011;15006;48.584;9.186;2024-03-25T05:45:55;5.05;;;3.47;;
27566;SDS011;15006;48.584;9.186;2024-03-25T05:48:24;3.17;;;2.90;;
27566;SDS011;15006;48.584;9.186;2024-03-25T05:51:00;6.05;;;3.50;;
27566;SDS011;15006;48.584;9.186;2024-03-25T05:53:26;3.40;;;3.10;;
27566;SDS011;15006;48.584;9.186;2024-03-25T05:55:53;7.05;;;3.20;;
27566;SDS011;15006;48.584;9.186;2024-03-25T05:58:20;3.60;;;3.30;;
27566;SDS011;15006;48.584;9.186;2024-03-25T06:00:46;5.07;;;3.42;;
27566;SDS011;15006;48.584;9.186;2024-03-25T06:03:16;3.35;;;3.03;;
27566;SDS011;15006;48.584;9.186;2024-03-25T06:05:43;3.90;;;3.20;;
27566;SDS011;15006;48.584;9.186;2024-03-25T06:08:10;5.10;;;4.05;;
27566;SDS011;15006;48.584;9.186;2024-03-25T06:10:52;5.90;;;3.30;;
27566;SDS011;15006;48.584;9.186;2024-03-25T06:13:19;4.75;;;3.35;;
27566;SDS011;15006;48.584;9.186;2024-03-25T06:15:45;3.38;;;3.17;;
27566;SDS011;15006;48.584;9.186;2024-03-25T06:18:11;5.43;;;3.78;;
27566;SDS011;15006;48.584;9.186;2024-03-25T06:20:37;3.60;;;3.30;;
27566;SDS011;15006;48.584;9.186;2024-03-25T06:23:04;3.80;;;3.17;;
27566;SDS011;15006;48.584;9.186;2024-03-25T06:25:31;5.40;;;3.40;;
27566;SDS011;15006;48.584;9.186;2024-03-25T06:27:58;4.13;;;2.90;;
27566;SDS011;15006;48.584;9.186;2024-03-25T06:30:24;4.57;;;3.45;;
27566;SDS011;15006;48.584;9.186;2024-03-25T06:33:09;4.13;;;2.90;;
27566;SDS011;15006;48.584;9.186;2024-03-25T06:35:53;3.38;;;3.08;;
27566;SDS011;15006;48.584;9.186;2024-03-25T06:38:19;8.20;;;3.17;;
27566;SDS011;15006;48.584;9.186;2024-03-25T06:40:45;11.80;;;2.92;;
27566;SDS011;15006;48.584;9.186;2024-03-25T06:43:11;5.32;;;3.03;;
27566;SDS011;15006;48.584;9.186;2024-03-25T06:45:37;4.30;;;2.83;;
27566;SDS011;15006;48.584;9.186;2024-03-25T06:48:04;5.95;;;3.55;;
27566;SDS011;15006;48.584;9.186;2024-03-25T06:50:30;3.40;;;3.10;;
27566;SDS011;15006;48.584;9.186;2024-03-25T06:52:56;6.13;;;3.00;;
27566;SDS011;15006;48.584;9.186;2024-03-25T06:55:22;3.35;;;3.05;;
27566;SDS011;15006;48.584;9.186;2024-03-25T06:57:52;3.40;;;3.10;;
27566;SDS011;15006;48.584;9.186;2024-03-25T07:00:19;7.13;;;3.05;;
27566;SDS011;15006;48.584;9.186;2024-03-25T07:02:47;3.63;;;3.13;;
27566;SDS011;15006;48.584;9.186;2024-03-25T07:05:13;5.75;;;3.42;;
27566;SDS011;15006;48.584;9.186;2024-03-25T07:07:40;6.05;;;3.22;;
27566;SDS011;15006;48.584;9.186;2024-03-25T07:10:06;6.75;;;3.35;;
27566;SDS011;15006;48.584;9.186;2024-03-25T07:12:32;3.92;;;3.20;;
27566;SDS011;15006;48.584;9.186;2024-03-25T07:14:58;5.22;;;3.60;;
27566;SDS011;15006;48.584;9.186;2024-03-25T07:17:24;5.95;;;3.40;;
27566;SDS011;15006;48.584;9.186;2024-03-25T07:19:51;6.55;;;3.63;;
27566;SDS011;15006;48.584;9.186;2024-03-25T07:22:17;4.30;;;3.38;;
27566;SDS011;15006;48.584;9.186;2024-03-25T07:24:43;5.55;;;3.30;;
27566;SDS011;15006;48.584;9.186;2024-03-25T07:27:10;5.13;;;3.38;;
27566;SDS011;15006;48.584;9.186;2024-03-25T07:29:36;3.47;;;3.17;;
27566;SDS011;15006;48.584;9.186;2024-03-25T07:32:03;4.38;;;3.15;;
27566;SDS011;15006;48.584;9.186;2024-03-25T07:34:29;5.07;;;3.22;;
27566;SDS011;15006;48.584;9.186;2024-03-25T07:36:55;3.30;;;2.97;;
27566;SDS011;15006;48.584;9.186;2024-03-25T07:39:21;6.22;;;2.90;;
27566;SDS011;15006;48.584;9.186;2024-03-25T07:41:49;3.00;;;2.80;;
27566;SDS011;15006;48.584;9.186;2024-03-25T07:44:15;3.03;;;2.72;;
27566;SDS011;15006;48.584;9.186;2024-03-25T07:46:41;3.58;;;3.28;;
27566;SDS011;15006;48.584;9.186;2024-03-25T07:49:07;6.20;;;3.05;;
27566;SDS011;15006;48.584;9.186;2024-03-25T07:51:33;3.47;;;3.00;;
27566;SDS011;15006;48.584;9.186;2024-03-25T07:54:01;3.30;;;3.00;;
27566;SDS011;15006;48.584;9.186;2024-03-25T07:56:28;4.30;;;2.97;;
27566;SDS011;15006;48.584;9.186;2024-03-25T07:58:55;4.05;;;2.78;;
27566;SDS011;15006;48.584;9.186;2024-03-25T08:01:21;3.20;;;2.55;;
27566;SDS011;15006;48.584;9.186;2024-03-25T08:03:47;4.22;;;2.78;;
27566;SDS011;15006;48.584;9.186;2024-03-25T08:06:13;3.67;;;2.63;;
27566;SDS011;15006;48.584;9.186;2024-03-25T08:08:39;5.10;;;3.00;;
27566;SDS011;15006;48.584;9.186;2024-03-25T08:11:05;3.80;;;2.65;;
27566;SDS011;15006;48.584;9.186;2024-03-25T08:13:31;3.63;;;2.40;;
27566;SDS011;15006;48.584;9.186;2024-03-25T08:15:57;5.45;;;2.80;;
27566;SDS011;15006;48.584;9.186;2024-03-25T08:18:23;3.42;;;2.63;;
27566;SDS011;15006;48.584;9.186;2024-03-25T08:20:49;4.05;;;2.30;;
27566;SDS011;15006;48.584;9.186;2024-03-25T08:23:16;4.50;;;2.30;;
27566;SDS011;15006;48.584;9.186;2024-03-25T08:25:42;4.50;;;2.38;;
27566;SDS011;15006;48.584;9.186;2024-03-25T08:28:08;3.17;;;2.58;;
27566;SDS011;15006;48.584;9.186;2024-03-25T08:30:34;5.70;;;2.88;;
27566;SDS011;15006;48.584;9.186;2024-03-25T08:33:01;4.35;;;2.25;;
27566;SDS011;15006;48.584;9.186;2024-03-25T08:35:27;2.55;;;2.35;;
27566;SDS011;15006;48.584;9.186;2024-03-25T08:37:53;3.55;;;2.33;;
27566;SDS011;15006;48.584;9.186;2024-03-25T08:40:19;2.33;;;2.03;;
27566;SDS011;15006;48.584;9.186;2024-03-25T08:42:45;5.68;;;2.45;;
27566;SDS011;15006;48.584;9.186;2024-03-25T08:45:11;2.05;;;1.88;;
27566;SDS011;15006;48.584;9.186;2024-03-25T08:47:37;2.95;;;1.95;;
27566;SDS011;15006;48.584;9.186;2024-03-25T08:50:04;3.38;;;2.25;;
27566;SDS011;15006;48.584;9.186;2024-03-25T08:52:30;3.92;;;1.98;;
27566;SDS011;15006;48.584;9.186;2024-03-25T08:54:56;5.13;;;2.17;;
27566;SDS011;15006;48.584;9.186;2024-03-25T08:57:22;4.07;;;1.98;;
27566;SDS011;15006;48.584;9.186;2024-03-25T08:59:48;4.32;;;2.22;;
27566;SDS011;15006;48.584;9.186;2024-03-25T09:02:14;4.65;;;2.13;;
27566;SDS011;15006;48.584;9.186;2024-03-25T09:04:40;2.17;;;1.98;;
27566;SDS011;15006;48.584;9.186;2024-03-25T09:07:06;3.30;;;1.80;;
27566;SDS011;15006;48.584;9.186;2024-03-25T09:09:33;3.00;;;1.90;;
27566;SDS011;15006;48.584;9.186;2024-03-25T09:12:18;3.25;;;2.00;;
27566;SDS011;15006;48.584;9.186;2024-03-25T09:14:44;2.35;;;2.10;;
27566;SDS011;15006;48.584;9.186;2024-03-25T09:17:09;2.67;;;2.03;;
27566;SDS011;15006;48.584;9.186;2024-03-25T09:19:35;2.40;;;2.05;;
27566;SDS011;15006;48.584;9.186;2024-03-25T09:22:01;3.00;;;2.08;;
27566;SDS011;15006;48.584;9.186;2024-03-25T09:24:27;3.42;;;1.67;;
27566;SDS011;15006;48.584;9.186;2024-03-25T09:26:53;2.85;;;1.92;;
27566;SDS011;15006;48.584;9.186;2024-03-25T09:29:20;2.92;;;2.05;;
27566;SDS011;15006;48.584;9.186;2024-03-25T09:31:46;1.75;;;1.65;;
27566;SDS011;15006;48.584;9.186;2024-03-25T09:34:12;1.90;;;1.77;;
27566;SDS011;15006;48.584;9.186;2024-03-25T09:36:38;2.03;;;1.83;;
27566;SDS011;15006;48.584;9.186;2024-03-25T09:39:03;2.95;;;1.75;;
27566;SDS011;15006;48.584;9.186;2024-03-25T09:41:30;1.92;;;1.42;;
27566;SDS011;15006;48.584;9.186;2024-03-25T09:44:01;2.58;;;1.73;;
27566;SDS011;15006;48.584;9.186;2024-03-25T09:46:31;2.13;;;1.60;;
27566;SDS011;15006;48.584;9.186;2024-03-25T09:48:58;3.15;;;1.80;;
27566;SDS011;15006;48.584;9.186;2024-03-25T09:51:27;1.33;;;1.10;;
27566;SDS011;15006;48.584;9.186;2024-03-25T09:53:53;2.58;;;1.80;;
27566;SDS011;15006;48.584;9.186;2024-03-25T09:56:19;1.55;;;1.20;;
27566;SDS011;15006;48.584;9.186;2024-03-25T09:58:45;1.38;;;1.25;;
27566;SDS011;15006;48.584;9.186;2024-03-25T10:01:12;4.50;;;1.83;;
27566;SDS011;15006;48.584;9.186;2024-03-25T10:03:37;1.83;;;1.25;;
27566;SDS011;15006;48.584;9.186;2024-03-25T10:06:03;3.60;;;1.30;;
27566;SDS011;15006;48.584;9.186;2024-03-25T10:08:30;2.63;;;1.77;;
27566;SDS011;15006;48.584;9.186;2024-03-25T10:10:56;2.13;;;1.45;;
27566;SDS011;15006;48.584;9.186;2024-03-25T10:13:23;2.95;;;1.27;;
27566;SDS011;15006;48.584;9.186;2024-03-25T10:15:49;3.53;;;1.67;;
27566;SDS011;15006;48.584;9.186;2024-03-25T10:18:15;1.45;;;1.30;;
27566;SDS011;15006;48.584;9.186;2024-03-25T10:20:51;3.72;;;1.67;;
27566;SDS011;15006;48.584;9.186;2024-03-25T10:23:21;4.35;;;1.58;;
27566;SDS011;15006;48.584;9.186;2024-03-25T10:25:51;2.53;;;2.03;;
27566;SDS011;15006;48.584;9.186;2024-03-25T10:28:18;2.85;;;1.67;;
27566;SDS011;15006;48.584;9.186;2024-03-25T10:30:44;1.77;;;1.60;;
27566;SDS011;15006;48.584;9.186;2024-03-25T10:33:11;1.98;;;1.50;;
27566;SDS011;15006;48.584;9.186;2024-03-25T10:35:38;2.55;;;1.85;;
27566;SDS011;15006;48.584;9.186;2024-03-25T10:38:06;2.03;;;1.70;;
27566;SDS011;15006;48.584;9.186;2024-03-25T10:43:04;2.40;;;1.55;;
27566;SDS011;15006;48.584;9.186;2024-03-25T10:45:46;5.43;;;1.77;;
27566;SDS011;15006;48.584;9.186;2024-03-25T10:48:15;2.17;;;1.70;;
27566;SDS011;15006;48.584;9.186;2024-03-25T10:50:48;2.70;;;1.67;;
27566;SDS011;15006;48.584;9.186;2024-03-25T10:53:17;1.92;;;1.40;;
27566;SDS011;15006;48.584;9.186;2024-03-25T10:55:47;1.95;;;1.33;;
27566;SDS011;15006;48.584;9.186;2024-03-25T10:58:15;5.22;;;1.20;;
27566;SDS011;15006;48.584;9.186;2024-03-25T11:00:43;2.05;;;1.20;;
27566;SDS011;15006;48.584;9.186;2024-03-25T11:03:09;2.95;;;1.30;;
27566;SDS011;15006;48.584;9.186;2024-03-25T11:05:37;2.42;;;1.35;;
27566;SDS011;15006;48.584;9.186;2024-03-25T11:08:13;1.35;;;1.25;;
27566;SDS011;15006;48.584;9.186;2024-03-25T11:10:43;2.05;;;1.30;;
27566;SDS011;15006;48.584;9.186;2024-03-25T11:13:11;1.40;;;1.20;;
27566;SDS011;15006;48.584;9.186;2024-03-25T11:15:43;1.45;;;1.02;;
27566;SDS011;15006;48.584;9.186;2024-03-25T11:18:12;2.15;;;1.20;;
27566;SDS011;15006;48.584;9.186;2024-03-25T11:20:38;1.30;;;1.00;;
27566;SDS011;15006;48.584;9.186;2024-03-25T11:23:12;0.65;;;0.65;;
27566;SDS011;15006;48.584;9.186;2024-03-25T11:25:39;1.02;;;0.50;;
27566;SDS011;15006;48.584;9.186;2024-03-25T11:28:07;0.70;;;0.60;;
27566;SDS011;15006;48.584;9.186;2024-03-25T11:30:35;0.60;;;0.52;;
27566;SDS011;15006;48.584;9.186;2024-03-25T11:33:02;0.82;;;0.60;;
27566;SDS011;15006;48.584;9.186;2024-03-25T11:35:30;0.60;;;0.60;;
27566;SDS011;15006;48.584;9.186;2024-03-25T11:37:55;0.80;;;0.50;;
27566;SDS011;15006;48.584;9.186;2024-03-25T11:40:21;0.60;;;0.43;;
27566;SDS011;15006;48.584;9.186;2024-03-25T11:42:47;0.50;;;0.43;;
27566;SDS011;15006;48.584;9.186;2024-03-25T11:45:14;1.20;;;0.80;;
27566;SDS011;15006;48.584;9.186;2024-03-25T11:47:45;0.98;;;0.75;;
27566;SDS011;15006;48.584;9.186;2024-03-25T11:50:14;0.82;;;0.68;;
27566;SDS011;15006;48.584;9.186;2024-03-25T11:52:44;1.83;;;0.95;;
27566;SDS011;15006;48.584;9.186;2024-03-25T11:55:15;0.75;;;0.73;;
27566;SDS011;15006;48.584;9.186;2024-03-25T11:57:42;1.15;;;0.77;;
27566;SDS011;15006;48.584;9.186;2024-03-25T12:00:08;1.55;;;0.77;;
27566;SDS011;15006;48.584;9.186;2024-03-25T12:02:47;1.10;;;0.70;;
27566;SDS011;15006;48.584;9.186;2024-03-25T12:05:14;1.63;;;0.88;;
27566;SDS011;15006;48.584;9.186;2024-03-25T12:07:39;0.85;;;0.70;;
27566;SDS011;15006;48.584;9.186;2024-03-25T12:10:05;1.00;;;0.50;;
27566;SDS011;15006;48.584;9.186;2024-03-25T12:12:50;1.02;;;0.73;;
27566;SDS011;15006;48.584;9.186;2024-03-25T12:15:17;1.10;;;0.95;;
27566;SDS011;15006;48.584;9.186;2024-03-25T12:17:43;0.88;;;0.73;;
27566;SDS011;15006;48.584;9.186;2024-03-25T12:20:09;1.58;;;0.88;;
27566;SDS011;15006;48.584;9.186;2024-03-25T12:22:38;1.25;;;1.00;;
27566;SDS011;15006;48.584;9.186;2024-03-25T12:25:07;1.42;;;1.20;;
27566;SDS011;15006;48.584;9.186;2024-03-25T12:27:34;0.80;;;0.75;;
27566;SDS011;15006;48.584;9.186;2024-03-25T12:32:41;1.52;;;0.63;;
27566;SDS011;15006;48.584;9.186;2024-03-25T12:35:10;1.75;;;1.30;;
27566;SDS011;15006;48.584;9.186;2024-03-25T12:37:42;1.20;;;0.90;;
27566;SDS011;15006;48.584;9.186;2024-03-25T12:42:39;0.85;;;0.70;;
27566;SDS011;15006;48.584;9.186;2024-03-25T12:45:06;0.70;;;0.70;;
27566;SDS011;15006;48.584;9.186;2024-03-25T12:47:33;1.73;;;0.80;;
27566;SDS011;15006;48.584;9.186;2024-03-25T12:49:59;0.77;;;0.70;;
27566;SDS011;15006;48.584;9.186;2024-03-25T12:52:25;1.33;;;1.08;;
27566;SDS011;15006;48.584;9.186;2024-03-25T12:54:51;1.52;;;0.80;;
27566;SDS011;15006;48.584;9.186;2024-03-25T12:57:17;2.17;;;0.90;;
27566;SDS011;15006;48.584;9.186;2024-03-25T12:59:44;1.20;;;1.00;;
27566;SDS011;15006;48.584;9.186;2024-03-25T13:02:11;2.25;;;1.00;;
27566;SDS011;15006;48.584;9.186;2024-03-25T13:04:38;0.90;;;0.70;;
27566;SDS011;15006;48.584;9.186;2024-03-25T13:07:05;1.20;;;1.00;;
27566;SDS011;15006;48.584;9.186;2024-03-25T13:09:31;1.38;;;1.00;;
27566;SDS011;15006;48.584;9.186;2024-03-25T13:11:57;0.65;;;0.65;;
27566;SDS011;15006;48.584;9.186;2024-03-25T13:14:24;0.70;;;0.70;;
27566;SDS011;15006;48.584;9.186;2024-03-25T13:16:50;1.60;;;0.90;;
27566;SDS011;15006;48.584;9.186;2024-03-25T13:19:16;1.35;;;0.93;;
27566;SDS011;15006;48.584;9.186;2024-03-25T13:21:43;1.23;;;0.75;;
27566;SDS011;15006;48.584;9.186;2024-03-25T13:24:09;1.40;;;1.02;;
27566;SDS011;15006;48.584;9.186;2024-03-25T13:26:35;1.20;;;0.88;;
27566;SDS011;15006;48.584;9.186;2024-03-25T13:29:01;0.80;;;0.80;;
27566;SDS011;15006;48.584;9.186;2024-03-25T13:31:27;1.95;;;0.90;;
27566;SDS011;15006;48.584;9.186;2024-03-25T13:33:53;0.90;;;0.70;;
27566;SDS011;15006;48.584;9.186;2024-03-25T13:36:19;0.90;;;0.90;;
27566;SDS011;15006;48.584;9.186;2024-03-25T13:38:45;1.13;;;0.70;;
27566;SDS011;15006;48.584;9.186;2024-03-25T13:41:11;0.80;;;0.60;;
27566;SDS011;15006;48.584;9.186;2024-03-25T13:43:44;1.30;;;0.90;;
27566;SDS011;15006;48.584;9.186;2024-03-25T13:46:09;1.13;;;0.75;;
27566;SDS011;15006;48.584;9.186;2024-03-25T13:48:37;1.05;;;0.93;;
27566;SDS011;15006;48.584;9.186;2024-03-25T13:51:03;0.85;;;0.80;;
27566;SDS011;15006;48.584;9.186;2024-03-25T13:53:30;0.70;;;0.70;;
27566;SDS011;15006;48.584;9.186;2024-03-25T13:55:56;0.95;;;0.90;;
27566;SDS011;15006;48.584;9.186;2024-03-25T13:58:22;1.10;;;0.88;;
27566;SDS011;15006;48.584;9.186;2024-03-25T14:00:48;1.50;;;0.88;;
27566;SDS011;15006;48.584;9.186;2024-03-25T14:03:14;0.60;;;0.60;;
27566;SDS011;15006;48.584;9.186;2024-03-25T14:05:41;1.20;;;0.98;;
27566;SDS011;15006;48.584;9.186;2024-03-25T14:08:07;5.30;;;0.95;;
27566;SDS011;15006;48.584;9.186;2024-03-25T14:10:34;2.03;;;0.88;;
27566;SDS011;15006;48.584;9.186;2024-03-25T14:13:00;0.85;;;0.70;;
27566;SDS011;15006;48.584;9.186;2024-03-25T14:15:27;3.50;;;0.90;;
27566;SDS011;15006;48.584;9.186;2024-03-25T14:17:53;1.70;;;0.75;;
27566;SDS011;15006;48.584;9.186;2024-03-25T14:20:19;1.35;;;0.70;;
27566;SDS011;15006;48.584;9.186;2024-03-25T14:22:44;0.95;;;0.75;;
27566;SDS011;15006;48.584;9.186;2024-03-25T14:25:10;1.27;;;1.08;;
27566;SDS011;15006;48.584;9.186;2024-03-25T14:27:37;1.65;;;0.80;;
27566;SDS011;15006;48.584;9.186;2024-03-25T14:30:04;1.00;;;0.60;;
27566;SDS011;15006;48.584;9.186;2024-03-25T14:32:31;1.25;;;0.90;;
27566;SDS011;15006;48.584;9.186;2024-03-25T14:34:57;0.77;;;0.70;;
27566;SDS011;15006;48.584;9.186;2024-03-25T14:37:24;0.77;;;0.70;;
27566;SDS011;15006;48.584;9.186;2024-03-25T14:39:50;2.03;;;1.10;;
27566;SDS011;15006;48.584;9.186;2024-03-25T14:42:16;2.42;;;0.90;;
27566;SDS011;15006;48.584;9.186;2024-03-25T14:44:42;0.70;;;0.70;;
27566;SDS011;15006;48.584;9.186;2024-03-25T14:47:08;1.48;;;1.08;;
27566;SDS011;15006;48.584;9.186;2024-03-25T14:49:34;0.95;;;0.80;;
27566;SDS011;15006;48.584;9.186;2024-03-25T14:52:00;1.15;;;0.80;;
27566;SDS011;15006;48.584;9.186;2024-03-25T14:54:33;1.95;;;0.90;;